sensor_id;sensor_type;location;lat;lon;timestamp;P1;durP1;ratioP1;P2;durP2;ratioP2
24407;SDS011;12542;50.924;4.516;2023-04-25T00:01:38;16.30;;;3.88;;
24407;SDS011;12542;50.924;4.516;2023-04-25T00:04:04;19.00;;;4.22;;
24407;SDS011;12542;50.924;4.516;2023-04-25T00:06:34;13.35;;;4.78;;
24407;SDS011;12542;50.924;4.516;2023-04-25T00:09:01;15.10;;;4.63;;
24407;SDS011;12542;50.924;4.516;2023-04-25T00:11:32;16.30;;;4.55;;
24407;SDS011;12542;50.924;4.516;2023-04-25T00:13:58;11.65;;;4.07;;
24407;SDS011;12542;50.924;4.516;2023-04-25T00:16:27;20.52;;;4.50;;
24407;SDS011;12542;50.924;4.516;2023-04-25T00:18:54;15.73;;;5.00;;
24407;SDS011;12542;50.924;4.516;2023-04-25T00:21:20;16.27;;;3.90;;
24407;SDS011;12542;50.924;4.516;2023-04-25T00:23:46;17.80;;;4.10;;
24407;SDS011;12542;50.924;4.516;2023-04-25T00:26:12;10.55;;;3.67;;
24407;SDS011;12542;50.924;4.516;2023-04-25T00:28:38;13.63;;;4.45;;
24407;SDS011;12542;50.924;4.516;2023-04-25T00:31:05;22.30;;;4.32;;
24407;SDS011;12542;50.924;4.516;2023-04-25T00:33:31;21.17;;;4.22;;
24407;SDS011;12542;50.924;4.516;2023-04-25T00:35:56;15.10;;;4.38;;
24407;SDS011;12542;50.924;4.516;2023-04-25T00:38:22;16.45;;;4.30;;
24407;SDS011;12542;50.924;4.516;2023-04-25T00:40:48;11.80;;;3.58;;
24407;SDS011;12542;50.924;4.516;2023-04-25T00:43:15;13.38;;;5.03;;
24407;SDS011;12542;50.924;4.516;2023-04-25T00:45:41;20.13;;;4.25;;
24407;SDS011;12542;50.924;4.516;2023-04-25T00:48:08;17.92;;;4.75;;
24407;SDS011;12542;50.924;4.516;2023-04-25T00:50:34;17.42;;;4.25;;
24407;SDS011;12542;50.924;4.516;2023-04-25T00:53:02;12.77;;;4.03;;
24407;SDS011;12542;50.924;4.516;2023-04-25T00:55:31;15.30;;;4.00;;
24407;SDS011;12542;50.924;4.516;2023-04-25T00:57:59;16.20;;;4.40;;
24407;SDS011;12542;50.924;4.516;2023-04-25T01:00:25;18.25;;;4.18;;
24407;SDS011;12542;50.924;4.516;2023-04-25T01:02:51;18.60;;;5.00;;
24407;SDS011;12542;50.924;4.516;2023-04-25T01:05:17;19.08;;;4.82;;
24407;SDS011;12542;50.924;4.516;2023-04-25T01:07:43;16.85;;;4.32;;
24407;SDS011;12542;50.924;4.516;2023-04-25T01:10:10;14.80;;;4.28;;
24407;SDS011;12542;50.924;4.516;2023-04-25T01:12:36;17.15;;;4.57;;
24407;SDS011;12542;50.924;4.516;2023-04-25T01:15:02;17.67;;;4.13;;
24407;SDS011;12542;50.924;4.516;2023-04-25T01:17:28;16.63;;;3.92;;
24407;SDS011;12542;50.924;4.516;2023-04-25T01:19:54;13.32;;;3.92;;
24407;SDS011;12542;50.924;4.516;2023-04-25T01:22:20;13.93;;;4.40;;
24407;SDS011;12542;50.924;4.516;2023-04-25T01:24:46;17.45;;;4.60;;
24407;SDS011;12542;50.924;4.516;2023-04-25T01:27:12;19.10;;;4.80;;
24407;SDS011;12542;50.924;4.516;2023-04-25T01:29:40;18.98;;;4.28;;
24407;SDS011;12542;50.924;4.516;2023-04-25T01:32:06;20.13;;;5.07;;
24407;SDS011;12542;50.924;4.516;2023-04-25T01:34:32;13.43;;;4.03;;
24407;SDS011;12542;50.924;4.516;2023-04-25T01:36:59;18.13;;;3.80;;
24407;SDS011;12542;50.924;4.516;2023-04-25T01:39:26;23.63;;;4.65;;
24407;SDS011;12542;50.924;4.516;2023-04-25T01:41:52;14.02;;;4.15;;
24407;SDS011;12542;50.924;4.516;2023-04-25T01:44:18;17.02;;;4.50;;
24407;SDS011;12542;50.924;4.516;2023-04-25T01:46:44;20.00;;;4.28;;
24407;SDS011;12542;50.924;4.516;2023-04-25T01:49:09;17.90;;;4.93;;
24407;SDS011;12542;50.924;4.516;2023-04-25T01:51:36;15.13;;;4.90;;
24407;SDS011;12542;50.924;4.516;2023-04-25T01:54:02;15.02;;;4.13;;
24407;SDS011;12542;50.924;4.516;2023-04-25T01:56:32;17.52;;;4.43;;
24407;SDS011;12542;50.924;4.516;2023-04-25T01:59:01;17.23;;;4.07;;
24407;SDS011;12542;50.924;4.516;2023-04-25T02:01:28;20.95;;;4.78;;
24407;SDS011;12542;50.924;4.516;2023-04-25T02:03:54;13.75;;;4.13;;
24407;SDS011;12542;50.924;4.516;2023-04-25T02:06:20;14.50;;;5.00;;
24407;SDS011;12542;50.924;4.516;2023-04-25T02:08:46;18.60;;;4.93;;
24407;SDS011;12542;50.924;4.516;2023-04-25T02:11:12;19.85;;;4.65;;
24407;SDS011;12542;50.924;4.516;2023-04-25T02:13:37;17.67;;;4.68;;
24407;SDS011;12542;50.924;4.516;2023-04-25T02:16:03;21.05;;;4.95;;
24407;SDS011;12542;50.924;4.516;2023-04-25T02:18:31;15.07;;;4.80;;
24407;SDS011;12542;50.924;4.516;2023-04-25T02:20:58;17.85;;;5.60;;
24407;SDS011;12542;50.924;4.516;2023-04-25T02:23:25;14.57;;;4.47;;
24407;SDS011;12542;50.924;4.516;2023-04-25T02:25:50;18.10;;;4.53;;
24407;SDS011;12542;50.924;4.516;2023-04-25T02:28:17;14.05;;;4.95;;
24407;SDS011;12542;50.924;4.516;2023-04-25T02:30:43;17.42;;;5.60;;
24407;SDS011;12542;50.924;4.516;2023-04-25T02:33:09;14.35;;;4.45;;
24407;SDS011;12542;50.924;4.516;2023-04-25T02:35:35;17.65;;;5.00;;
24407;SDS011;12542;50.924;4.516;2023-04-25T02:38:01;20.30;;;4.75;;
24407;SDS011;12542;50.924;4.516;2023-04-25T02:40:27;19.63;;;4.60;;
24407;SDS011;12542;50.924;4.516;2023-04-25T02:42:54;16.50;;;5.03;;
24407;SDS011;12542;50.924;4.516;2023-04-25T02:45:19;17.02;;;4.78;;
24407;SDS011;12542;50.924;4.516;2023-04-25T02:47:46;19.45;;;6.07;;
24407;SDS011;12542;50.924;4.516;2023-04-25T02:50:11;20.08;;;5.03;;
24407;SDS011;12542;50.924;4.516;2023-04-25T02:52:37;22.92;;;4.72;;
24407;SDS011;12542;50.924;4.516;2023-04-25T02:55:03;15.73;;;4.82;;
24407;SDS011;12542;50.924;4.516;2023-04-25T02:57:29;14.45;;;4.97;;
24407;SDS011;12542;50.924;4.516;2023-04-25T02:59:54;19.88;;;6.13;;
24407;SDS011;12542;50.924;4.516;2023-04-25T03:02:20;20.40;;;4.63;;
24407;SDS011;12542;50.924;4.516;2023-04-25T03:04:46;19.65;;;5.25;;
24407;SDS011;12542;50.924;4.516;2023-04-25T03:07:11;22.30;;;6.30;;
24407;SDS011;12542;50.924;4.516;2023-04-25T03:09:37;16.27;;;5.10;;
24407;SDS011;12542;50.924;4.516;2023-04-25T03:12:03;17.33;;;4.43;;
24407;SDS011;12542;50.924;4.516;2023-04-25T03:14:29;25.63;;;5.90;;
24407;SDS011;12542;50.924;4.516;2023-04-25T03:16:55;25.17;;;5.43;;
24407;SDS011;12542;50.924;4.516;2023-04-25T03:19:20;16.73;;;5.30;;
24407;SDS011;12542;50.924;4.516;2023-04-25T03:21:46;17.73;;;5.20;;
24407;SDS011;12542;50.924;4.516;2023-04-25T03:24:13;14.57;;;5.55;;
24407;SDS011;12542;50.924;4.516;2023-04-25T03:26:39;18.33;;;5.45;;
24407;SDS011;12542;50.924;4.516;2023-04-25T03:29:05;13.23;;;4.05;;
24407;SDS011;12542;50.924;4.516;2023-04-25T03:31:30;20.45;;;4.93;;
24407;SDS011;12542;50.924;4.516;2023-04-25T03:33:56;21.80;;;4.50;;
24407;SDS011;12542;50.924;4.516;2023-04-25T03:36:22;18.00;;;3.45;;
24407;SDS011;12542;50.924;4.516;2023-04-25T03:38:48;20.23;;;4.88;;
24407;SDS011;12542;50.924;4.516;2023-04-25T03:41:14;14.00;;;4.03;;
24407;SDS011;12542;50.924;4.516;2023-04-25T03:43:39;19.42;;;4.22;;
24407;SDS011;12542;50.924;4.516;2023-04-25T03:46:05;25.75;;;4.00;;
24407;SDS011;12542;50.924;4.516;2023-04-25T03:48:31;14.95;;;4.68;;
24407;SDS011;12542;50.924;4.516;2023-04-25T03:50:56;15.40;;;3.30;;
24407;SDS011;12542;50.924;4.516;2023-04-25T03:53:22;16.05;;;4.40;;
24407;SDS011;12542;50.924;4.516;2023-04-25T03:55:48;18.13;;;3.97;;
24407;SDS011;12542;50.924;4.516;2023-04-25T03:58:14;16.40;;;5.32;;
24407;SDS011;12542;50.924;4.516;2023-04-25T04:00:40;15.10;;;3.88;;
24407;SDS011;12542;50.924;4.516;2023-04-25T04:03:07;17.00;;;3.35;;
24407;SDS011;12542;50.924;4.516;2023-04-25T04:05:32;11.25;;;3.58;;
24407;SDS011;12542;50.924;4.516;2023-04-25T04:07:58;21.50;;;4.05;;
24407;SDS011;12542;50.924;4.516;2023-04-25T04:10:24;18.13;;;3.65;;
24407;SDS011;12542;50.924;4.516;2023-04-25T04:12:51;17.40;;;3.65;;
24407;SDS011;12542;50.924;4.516;2023-04-25T04:15:16;15.80;;;3.42;;
24407;SDS011;12542;50.924;4.516;2023-04-25T04:17:42;13.70;;;3.03;;
24407;SDS011;12542;50.924;4.516;2023-04-25T04:20:08;18.35;;;3.60;;
24407;SDS011;12542;50.924;4.516;2023-04-25T04:22:36;13.27;;;3.75;;
24407;SDS011;12542;50.924;4.516;2023-04-25T04:25:02;14.13;;;3.92;;
24407;SDS011;12542;50.924;4.516;2023-04-25T04:27:28;13.93;;;3.88;;
24407;SDS011;12542;50.924;4.516;2023-04-25T04:29:54;12.95;;;3.78;;
24407;SDS011;12542;50.924;4.516;2023-04-25T04:32:20;20.20;;;4.05;;
24407;SDS011;12542;50.924;4.516;2023-04-25T04:34:45;19.23;;;3.28;;
24407;SDS011;12542;50.924;4.516;2023-04-25T04:37:12;9.60;;;3.55;;
24407;SDS011;12542;50.924;4.516;2023-04-25T04:39:38;11.73;;;3.33;;
24407;SDS011;12542;50.924;4.516;2023-04-25T04:42:03;11.38;;;3.33;;
24407;SDS011;12542;50.924;4.516;2023-04-25T04:44:30;15.85;;;3.50;;
24407;SDS011;12542;50.924;4.516;2023-04-25T04:47:00;14.90;;;3.72;;
24407;SDS011;12542;50.924;4.516;2023-04-25T04:49:26;17.70;;;3.28;;
24407;SDS011;12542;50.924;4.516;2023-04-25T04:51:52;16.00;;;3.50;;
24407;SDS011;12542;50.924;4.516;2023-04-25T04:54:19;12.07;;;3.47;;
24407;SDS011;12542;50.924;4.516;2023-04-25T04:56:45;13.50;;;3.85;;
24407;SDS011;12542;50.924;4.516;2023-04-25T04:59:12;13.25;;;3.75;;
24407;SDS011;12542;50.924;4.516;2023-04-25T05:01:38;13.70;;;3.58;;
24407;SDS011;12542;50.924;4.516;2023-04-25T05:04:03;13.43;;;4.28;;
24407;SDS011;12542;50.924;4.516;2023-04-25T05:06:30;13.38;;;4.32;;
24407;SDS011;12542;50.924;4.516;2023-04-25T05:08:57;15.55;;;4.70;;
24407;SDS011;12542;50.924;4.516;2023-04-25T05:11:23;13.55;;;4.15;;
24407;SDS011;12542;50.924;4.516;2023-04-25T05:13:51;18.45;;;4.78;;
24407;SDS011;12542;50.924;4.516;2023-04-25T05:16:17;18.00;;;4.68;;
24407;SDS011;12542;50.924;4.516;2023-04-25T05:18:44;20.00;;;4.63;;
24407;SDS011;12542;50.924;4.516;2023-04-25T05:21:09;14.80;;;4.13;;
24407;SDS011;12542;50.924;4.516;2023-04-25T05:23:35;20.58;;;4.80;;
24407;SDS011;12542;50.924;4.516;2023-04-25T05:26:01;13.35;;;4.93;;
24407;SDS011;12542;50.924;4.516;2023-04-25T05:28:27;16.20;;;4.38;;
24407;SDS011;12542;50.924;4.516;2023-04-25T05:30:53;19.15;;;5.15;;
24407;SDS011;12542;50.924;4.516;2023-04-25T05:33:19;22.73;;;4.28;;
24407;SDS011;12542;50.924;4.516;2023-04-25T05:35:45;20.10;;;4.75;;
24407;SDS011;12542;50.924;4.516;2023-04-25T05:38:11;16.13;;;4.55;;
24407;SDS011;12542;50.924;4.516;2023-04-25T05:40:36;13.70;;;4.57;;
24407;SDS011;12542;50.924;4.516;2023-04-25T05:43:02;20.55;;;4.80;;
24407;SDS011;12542;50.924;4.516;2023-04-25T05:45:28;17.70;;;5.25;;
24407;SDS011;12542;50.924;4.516;2023-04-25T05:47:54;14.43;;;4.57;;
24407;SDS011;12542;50.924;4.516;2023-04-25T05:50:20;23.08;;;5.72;;
24407;SDS011;12542;50.924;4.516;2023-04-25T05:52:46;21.20;;;5.68;;
24407;SDS011;12542;50.924;4.516;2023-04-25T05:55:12;14.88;;;4.60;;
24407;SDS011;12542;50.924;4.516;2023-04-25T05:57:38;14.05;;;4.55;;
24407;SDS011;12542;50.924;4.516;2023-04-25T06:00:07;15.07;;;4.80;;
24407;SDS011;12542;50.924;4.516;2023-04-25T06:02:37;18.92;;;6.25;;
24407;SDS011;12542;50.924;4.516;2023-04-25T06:05:02;20.70;;;5.40;;
24407;SDS011;12542;50.924;4.516;2023-04-25T06:07:29;20.63;;;5.63;;
24407;SDS011;12542;50.924;4.516;2023-04-25T06:09:55;23.25;;;6.05;;
24407;SDS011;12542;50.924;4.516;2023-04-25T06:12:21;17.92;;;5.75;;
24407;SDS011;12542;50.924;4.516;2023-04-25T06:14:47;14.77;;;4.65;;
24407;SDS011;12542;50.924;4.516;2023-04-25T06:17:13;19.50;;;4.90;;
24407;SDS011;12542;50.924;4.516;2023-04-25T06:19:39;17.27;;;5.25;;
24407;SDS011;12542;50.924;4.516;2023-04-25T06:22:07;21.00;;;6.03;;
24407;SDS011;12542;50.924;4.516;2023-04-25T06:24:33;16.73;;;5.20;;
24407;SDS011;12542;50.924;4.516;2023-04-25T06:26:59;16.15;;;5.05;;
24407;SDS011;12542;50.924;4.516;2023-04-25T06:29:25;16.17;;;5.10;;
24407;SDS011;12542;50.924;4.516;2023-04-25T06:31:51;16.45;;;5.50;;
24407;SDS011;12542;50.924;4.516;2023-04-25T06:34:18;18.63;;;5.35;;
24407;SDS011;12542;50.924;4.516;2023-04-25T06:36:43;14.57;;;4.38;;
24407;SDS011;12542;50.924;4.516;2023-04-25T06:39:09;17.65;;;5.05;;
24407;SDS011;12542;50.924;4.516;2023-04-25T06:41:35;15.75;;;5.15;;
24407;SDS011;12542;50.924;4.516;2023-04-25T06:44:01;20.75;;;5.10;;
24407;SDS011;12542;50.924;4.516;2023-04-25T06:46:27;15.98;;;5.60;;
24407;SDS011;12542;50.924;4.516;2023-04-25T06:48:53;16.25;;;5.25;;
24407;SDS011;12542;50.924;4.516;2023-04-25T06:51:19;23.00;;;5.47;;
24407;SDS011;12542;50.924;4.516;2023-04-25T06:53:44;12.98;;;5.70;;
24407;SDS011;12542;50.924;4.516;2023-04-25T06:56:10;17.27;;;5.43;;
24407;SDS011;12542;50.924;4.516;2023-04-25T06:58:36;16.17;;;5.75;;
24407;SDS011;12542;50.924;4.516;2023-04-25T07:01:02;22.42;;;6.20;;
24407;SDS011;12542;50.924;4.516;2023-04-25T07:03:27;11.43;;;5.75;;
24407;SDS011;12542;50.924;4.516;2023-04-25T07:05:53;19.27;;;5.47;;
24407;SDS011;12542;50.924;4.516;2023-04-25T07:08:19;12.23;;;4.72;;
24407;SDS011;12542;50.924;4.516;2023-04-25T07:10:46;19.73;;;5.30;;
24407;SDS011;12542;50.924;4.516;2023-04-25T07:13:12;18.13;;;5.55;;
24407;SDS011;12542;50.924;4.516;2023-04-25T07:15:37;16.63;;;5.07;;
24407;SDS011;12542;50.924;4.516;2023-04-25T07:18:03;15.18;;;4.95;;
24407;SDS011;12542;50.924;4.516;2023-04-25T07:20:31;20.70;;;5.10;;
24407;SDS011;12542;50.924;4.516;2023-04-25T07:22:58;11.40;;;5.10;;
24407;SDS011;12542;50.924;4.516;2023-04-25T07:25:26;21.58;;;4.97;;
24407;SDS011;12542;50.924;4.516;2023-04-25T07:27:51;19.85;;;4.70;;
24407;SDS011;12542;50.924;4.516;2023-04-25T07:30:17;17.08;;;4.70;;
24407;SDS011;12542;50.924;4.516;2023-04-25T07:32:43;19.98;;;4.43;;
24407;SDS011;12542;50.924;4.516;2023-04-25T07:35:08;15.90;;;4.30;;
24407;SDS011;12542;50.924;4.516;2023-04-25T07:37:34;13.88;;;4.28;;
24407;SDS011;12542;50.924;4.516;2023-04-25T07:40:01;15.55;;;5.05;;
24407;SDS011;12542;50.924;4.516;2023-04-25T07:42:29;13.70;;;4.15;;
24407;SDS011;12542;50.924;4.516;2023-04-25T07:44:57;17.45;;;3.90;;
24407;SDS011;12542;50.924;4.516;2023-04-25T07:47:22;10.85;;;3.70;;
24407;SDS011;12542;50.924;4.516;2023-04-25T07:49:48;17.92;;;3.95;;
24407;SDS011;12542;50.924;4.516;2023-04-25T07:52:17;19.70;;;3.58;;
24407;SDS011;12542;50.924;4.516;2023-04-25T07:54:43;12.63;;;3.22;;
24407;SDS011;12542;50.924;4.516;2023-04-25T07:57:08;8.02;;;2.67;;
24407;SDS011;12542;50.924;4.516;2023-04-25T07:59:34;11.93;;;3.00;;
24407;SDS011;12542;50.924;4.516;2023-04-25T08:02:00;11.05;;;2.70;;
24407;SDS011;12542;50.924;4.516;2023-04-25T08:04:27;12.13;;;2.22;;
24407;SDS011;12542;50.924;4.516;2023-04-25T08:06:53;11.48;;;2.60;;
24407;SDS011;12542;50.924;4.516;2023-04-25T08:09:19;11.43;;;2.90;;
24407;SDS011;12542;50.924;4.516;2023-04-25T08:11:45;14.35;;;2.75;;
24407;SDS011;12542;50.924;4.516;2023-04-25T08:14:12;11.20;;;2.83;;
24407;SDS011;12542;50.924;4.516;2023-04-25T08:16:38;10.40;;;2.70;;
24407;SDS011;12542;50.924;4.516;2023-04-25T08:19:04;9.10;;;2.40;;
24407;SDS011;12542;50.924;4.516;2023-04-25T08:21:31;10.27;;;3.03;;
24407;SDS011;12542;50.924;4.516;2023-04-25T08:23:57;6.78;;;2.53;;
24407;SDS011;12542;50.924;4.516;2023-04-25T08:26:23;11.35;;;2.58;;
24407;SDS011;12542;50.924;4.516;2023-04-25T08:28:50;17.17;;;3.58;;
24407;SDS011;12542;50.924;4.516;2023-04-25T08:31:16;9.73;;;2.58;;
24407;SDS011;12542;50.924;4.516;2023-04-25T08:33:42;14.93;;;3.85;;
24407;SDS011;12542;50.924;4.516;2023-04-25T08:36:08;17.30;;;3.58;;
24407;SDS011;12542;50.924;4.516;2023-04-25T08:38:33;10.32;;;2.72;;
24407;SDS011;12542;50.924;4.516;2023-04-25T08:40:59;10.70;;;2.95;;
24407;SDS011;12542;50.924;4.516;2023-04-25T08:43:28;14.35;;;3.08;;
24407;SDS011;12542;50.924;4.516;2023-04-25T08:45:57;11.52;;;2.70;;
24407;SDS011;12542;50.924;4.516;2023-04-25T08:48:25;14.30;;;3.22;;
24407;SDS011;12542;50.924;4.516;2023-04-25T08:50:53;10.50;;;2.70;;
24407;SDS011;12542;50.924;4.516;2023-04-25T08:53:27;9.80;;;2.85;;
24407;SDS011;12542;50.924;4.516;2023-04-25T08:55:54;12.90;;;2.50;;
24407;SDS011;12542;50.924;4.516;2023-04-25T08:58:21;9.70;;;3.10;;
24407;SDS011;12542;50.924;4.516;2023-04-25T09:00:48;15.38;;;2.88;;
24407;SDS011;12542;50.924;4.516;2023-04-25T09:03:14;10.18;;;2.22;;
24407;SDS011;12542;50.924;4.516;2023-04-25T09:05:41;14.18;;;2.65;;
24407;SDS011;12542;50.924;4.516;2023-04-25T09:08:07;15.13;;;2.63;;
24407;SDS011;12542;50.924;4.516;2023-04-25T09:10:33;14.02;;;2.72;;
24407;SDS011;12542;50.924;4.516;2023-04-25T09:13:06;8.60;;;2.30;;
24407;SDS011;12542;50.924;4.516;2023-04-25T09:15:49;10.27;;;2.60;;
24407;SDS011;12542;50.924;4.516;2023-04-25T09:18:23;10.90;;;2.28;;
24407;SDS011;12542;50.924;4.516;2023-04-25T09:20:53;11.25;;;2.28;;
24407;SDS011;12542;50.924;4.516;2023-04-25T09:23:20;10.02;;;2.45;;
24407;SDS011;12542;50.924;4.516;2023-04-25T09:25:51;10.77;;;1.92;;
24407;SDS011;12542;50.924;4.516;2023-04-25T09:28:25;8.18;;;3.05;;
24407;SDS011;12542;50.924;4.516;2023-04-25T09:30:55;14.25;;;2.50;;
24407;SDS011;12542;50.924;4.516;2023-04-25T09:33:28;9.70;;;1.77;;
24407;SDS011;12542;50.924;4.516;2023-04-25T09:36:07;15.77;;;2.25;;
24407;SDS011;12542;50.924;4.516;2023-04-25T09:38:40;9.25;;;2.25;;
24407;SDS011;12542;50.924;4.516;2023-04-25T09:41:07;10.65;;;1.50;;
24407;SDS011;12542;50.924;4.516;2023-04-25T09:43:34;9.13;;;2.30;;
24407;SDS011;12542;50.924;4.516;2023-04-25T09:46:04;7.80;;;2.08;;
24407;SDS011;12542;50.924;4.516;2023-04-25T09:48:36;8.52;;;2.45;;
24407;SDS011;12542;50.924;4.516;2023-04-25T09:53:28;5.15;;;1.23;;
24407;SDS011;12542;50.924;4.516;2023-04-25T09:55:55;7.38;;;1.50;;
24407;SDS011;12542;50.924;4.516;2023-04-25T09:58:21;10.80;;;2.00;;
24407;SDS011;12542;50.924;4.516;2023-04-25T10:00:50;9.50;;;2.08;;
24407;SDS011;12542;50.924;4.516;2023-04-25T10:03:17;6.70;;;1.40;;
24407;SDS011;12542;50.924;4.516;2023-04-25T10:05:45;7.63;;;1.45;;
24407;SDS011;12542;50.924;4.516;2023-04-25T10:08:14;6.93;;;0.98;;
24407;SDS011;12542;50.924;4.516;2023-04-25T10:10:41;7.80;;;1.73;;
24407;SDS011;12542;50.924;4.516;2023-04-25T10:13:09;3.15;;;1.05;;
24407;SDS011;12542;50.924;4.516;2023-04-25T10:15:39;8.05;;;1.35;;
24407;SDS011;12542;50.924;4.516;2023-04-25T10:18:06;7.40;;;1.25;;
24407;SDS011;12542;50.924;4.516;2023-04-25T10:20:32;4.22;;;1.05;;
24407;SDS011;12542;50.924;4.516;2023-04-25T10:23:01;8.60;;;1.38;;
24407;SDS011;12542;50.924;4.516;2023-04-25T10:25:40;4.88;;;1.52;;
24407;SDS011;12542;50.924;4.516;2023-04-25T10:28:06;4.10;;;1.35;;
24407;SDS011;12542;50.924;4.516;2023-04-25T10:30:33;5.93;;;1.13;;
24407;SDS011;12542;50.924;4.516;2023-04-25T10:33:01;10.23;;;1.30;;
24407;SDS011;12542;50.924;4.516;2023-04-25T10:35:46;6.57;;;1.30;;
24407;SDS011;12542;50.924;4.516;2023-04-25T10:38:13;7.57;;;1.40;;
24407;SDS011;12542;50.924;4.516;2023-04-25T10:40:39;8.32;;;1.40;;
24407;SDS011;12542;50.924;4.516;2023-04-25T10:45:52;12.13;;;2.00;;
24407;SDS011;12542;50.924;4.516;2023-04-25T10:48:52;6.72;;;1.42;;
24407;SDS011;12542;50.924;4.516;2023-04-25T10:51:22;5.35;;;1.20;;
24407;SDS011;12542;50.924;4.516;2023-04-25T10:53:57;4.57;;;1.50;;
24407;SDS011;12542;50.924;4.516;2023-04-25T10:56:37;6.25;;;1.88;;
24407;SDS011;12542;50.924;4.516;2023-04-25T11:01:36;9.98;;;1.65;;
24407;SDS011;12542;50.924;4.516;2023-04-25T11:04:23;5.15;;;1.50;;
24407;SDS011;12542;50.924;4.516;2023-04-25T11:09:38;8.65;;;1.75;;
24407;SDS011;12542;50.924;4.516;2023-04-25T11:12:07;8.82;;;2.00;;
24407;SDS011;12542;50.924;4.516;2023-04-25T11:14:33;9.23;;;2.20;;
24407;SDS011;12542;50.924;4.516;2023-04-25T11:16:59;8.02;;;1.83;;
24407;SDS011;12542;50.924;4.516;2023-04-25T11:19:27;6.47;;;2.20;;
24407;SDS011;12542;50.924;4.516;2023-04-25T11:21:57;7.30;;;2.28;;
24407;SDS011;12542;50.924;4.516;2023-04-25T11:24:27;7.50;;;1.95;;
24407;SDS011;12542;50.924;4.516;2023-04-25T11:29:27;9.30;;;1.85;;
24407;SDS011;12542;50.924;4.516;2023-04-25T11:31:54;8.02;;;2.05;;
24407;SDS011;12542;50.924;4.516;2023-04-25T11:34:26;7.25;;;1.70;;
24407;SDS011;12542;50.924;4.516;2023-04-25T11:36:55;7.93;;;1.50;;
24407;SDS011;12542;50.924;4.516;2023-04-25T11:39:24;7.45;;;1.73;;
24407;SDS011;12542;50.924;4.516;2023-04-25T11:41:52;4.75;;;1.15;;
24407;SDS011;12542;50.924;4.516;2023-04-25T11:44:18;3.33;;;1.08;;
24407;SDS011;12542;50.924;4.516;2023-04-25T11:46:44;4.53;;;1.30;;
24407;SDS011;12542;50.924;4.516;2023-04-25T11:49:11;10.95;;;2.28;;
24407;SDS011;12542;50.924;4.516;2023-04-25T11:51:38;6.25;;;1.98;;
24407;SDS011;12542;50.924;4.516;2023-04-25T11:54:08;9.48;;;2.45;;
24407;SDS011;12542;50.924;4.516;2023-04-25T11:56:35;11.18;;;3.42;;
24407;SDS011;12542;50.924;4.516;2023-04-25T11:59:02;6.88;;;2.05;;
24407;SDS011;12542;50.924;4.516;2023-04-25T12:01:29;6.10;;;1.35;;
24407;SDS011;12542;50.924;4.516;2023-04-25T12:06:46;4.60;;;1.13;;
24407;SDS011;12542;50.924;4.516;2023-04-25T12:09:13;7.65;;;1.45;;
24407;SDS011;12542;50.924;4.516;2023-04-25T12:11:43;3.15;;;0.80;;
24407;SDS011;12542;50.924;4.516;2023-04-25T12:14:10;5.70;;;0.75;;
24407;SDS011;12542;50.924;4.516;2023-04-25T12:16:42;4.30;;;1.05;;
24407;SDS011;12542;50.924;4.516;2023-04-25T12:19:08;1.75;;;0.75;;
24407;SDS011;12542;50.924;4.516;2023-04-25T12:21:34;4.32;;;1.05;;
24407;SDS011;12542;50.924;4.516;2023-04-25T12:24:21;4.38;;;0.90;;
24407;SDS011;12542;50.924;4.516;2023-04-25T12:26:53;4.43;;;0.80;;
24407;SDS011;12542;50.924;4.516;2023-04-25T12:29:25;5.57;;;0.80;;
24407;SDS011;12542;50.924;4.516;2023-04-25T12:31:54;4.85;;;0.88;;
24407;SDS011;12542;50.924;4.516;2023-04-25T12:34:20;7.28;;;1.20;;
24407;SDS011;12542;50.924;4.516;2023-04-25T12:36:47;4.68;;;0.93;;
24407;SDS011;12542;50.924;4.516;2023-04-25T12:39:14;3.35;;;0.80;;
24407;SDS011;12542;50.924;4.516;2023-04-25T12:41:41;4.10;;;0.85;;
24407;SDS011;12542;50.924;4.516;2023-04-25T12:44:06;3.85;;;0.98;;
24407;SDS011;12542;50.924;4.516;2023-04-25T12:46:32;4.50;;;1.15;;
24407;SDS011;12542;50.924;4.516;2023-04-25T12:48:58;7.13;;;0.90;;
24407;SDS011;12542;50.924;4.516;2023-04-25T12:51:23;7.18;;;1.00;;
24407;SDS011;12542;50.924;4.516;2023-04-25T12:53:50;6.15;;;0.68;;
24407;SDS011;12542;50.924;4.516;2023-04-25T12:56:17;3.83;;;1.10;;
24407;SDS011;12542;50.924;4.516;2023-04-25T12:58:43;8.07;;;1.40;;
24407;SDS011;12542;50.924;4.516;2023-04-25T13:01:09;6.05;;;0.90;;
24407;SDS011;12542;50.924;4.516;2023-04-25T13:03:35;3.90;;;1.02;;
24407;SDS011;12542;50.924;4.516;2023-04-25T13:06:00;7.05;;;1.10;;
24407;SDS011;12542;50.924;4.516;2023-04-25T13:08:26;6.22;;;1.40;;
24407;SDS011;12542;50.924;4.516;2023-04-25T13:10:52;6.45;;;1.60;;
24407;SDS011;12542;50.924;4.516;2023-04-25T13:13:17;4.45;;;1.40;;
24407;SDS011;12542;50.924;4.516;2023-04-25T13:15:43;5.55;;;1.10;;
24407;SDS011;12542;50.924;4.516;2023-04-25T13:18:09;6.57;;;0.95;;
24407;SDS011;12542;50.924;4.516;2023-04-25T13:20:35;4.28;;;0.80;;
24407;SDS011;12542;50.924;4.516;2023-04-25T13:23:01;7.80;;;1.30;;
24407;SDS011;12542;50.924;4.516;2023-04-25T13:25:27;4.30;;;0.95;;
24407;SDS011;12542;50.924;4.516;2023-04-25T13:27:52;5.47;;;0.90;;
24407;SDS011;12542;50.924;4.516;2023-04-25T13:30:18;5.13;;;0.77;;
24407;SDS011;12542;50.924;4.516;2023-04-25T13:32:45;6.47;;;0.80;;
24407;SDS011;12542;50.924;4.516;2023-04-25T13:35:12;4.88;;;1.02;;
24407;SDS011;12542;50.924;4.516;2023-04-25T13:37:39;5.82;;;1.00;;
24407;SDS011;12542;50.924;4.516;2023-04-25T13:40:06;5.70;;;1.05;;
24407;SDS011;12542;50.924;4.516;2023-04-25T13:42:35;6.00;;;1.13;;
24407;SDS011;12542;50.924;4.516;2023-04-25T13:45:01;3.75;;;1.10;;
24407;SDS011;12542;50.924;4.516;2023-04-25T13:47:27;4.00;;;0.77;;
24407;SDS011;12542;50.924;4.516;2023-04-25T13:49:54;4.22;;;0.80;;
24407;SDS011;12542;50.924;4.516;2023-04-25T13:52:20;8.50;;;1.05;;
24407;SDS011;12542;50.924;4.516;2023-04-25T13:54:45;3.08;;;0.90;;
24407;SDS011;12542;50.924;4.516;2023-04-25T13:57:11;4.97;;;0.82;;
24407;SDS011;12542;50.924;4.516;2023-04-25T13:59:38;3.03;;;0.80;;
24407;SDS011;12542;50.924;4.516;2023-04-25T14:02:07;1.92;;;0.65;;
24407;SDS011;12542;50.924;4.516;2023-04-25T14:04:33;5.93;;;0.80;;
24407;SDS011;12542;50.924;4.516;2023-04-25T14:06:59;4.50;;;1.20;;
24407;SDS011;12542;50.924;4.516;2023-04-25T14:09:24;4.47;;;0.93;;
24407;SDS011;12542;50.924;4.516;2023-04-25T14:11:52;4.25;;;1.00;;
24407;SDS011;12542;50.924;4.516;2023-04-25T14:14:19;4.53;;;0.80;;
24407;SDS011;12542;50.924;4.516;2023-04-25T14:16:46;4.88;;;0.90;;
24407;SDS011;12542;50.924;4.516;2023-04-25T14:19:16;3.78;;;0.80;;
24407;SDS011;12542;50.924;4.516;2023-04-25T14:21:43;11.35;;;1.17;;
24407;SDS011;12542;50.924;4.516;2023-04-25T14:24:09;3.53;;;0.82;;
24407;SDS011;12542;50.924;4.516;2023-04-25T14:26:38;4.47;;;0.98;;
24407;SDS011;12542;50.924;4.516;2023-04-25T14:29:04;3.45;;;1.10;;
24407;SDS011;12542;50.924;4.516;2023-04-25T14:31:31;3.60;;;0.77;;
24407;SDS011;12542;50.924;4.516;2023-04-25T14:33:57;6.93;;;0.95;;
24407;SDS011;12542;50.924;4.516;2023-04-25T14:36:23;5.95;;;1.15;;
24407;SDS011;12542;50.924;4.516;2023-04-25T14:38:49;13.13;;;1.45;;
24407;SDS011;12542;50.924;4.516;2023-04-25T14:41:15;6.32;;;0.80;;
24407;SDS011;12542;50.924;4.516;2023-04-25T14:43:41;3.38;;;0.93;;
24407;SDS011;12542;50.924;4.516;2023-04-25T14:46:07;5.72;;;0.95;;
24407;SDS011;12542;50.924;4.516;2023-04-25T14:48:33;3.03;;;0.80;;
24407;SDS011;12542;50.924;4.516;2023-04-25T14:51:00;4.38;;;0.70;;
24407;SDS011;12542;50.924;4.516;2023-04-25T14:53:26;2.72;;;0.65;;